createdAt,value
2023-08-27T00:02:05.008Z,7.10
2023-08-27T00:04:31.610Z,7.43
2023-08-27T00:06:58.759Z,6.78
2023-08-27T00:09:25.400Z,6.93
2023-08-27T00:11:52.054Z,7.63
2023-08-27T00:14:18.699Z,7.00
2023-08-27T00:16:45.180Z,7.15
2023-08-27T00:19:12.389Z,7.00
2023-08-27T00:21:38.952Z,7.28
2023-08-27T00:24:06.040Z,7.00
2023-08-27T00:26:32.701Z,7.47
2023-08-27T00:29:00.432Z,7.05
2023-08-27T00:31:27.218Z,7.75
2023-08-27T00:33:53.855Z,7.63
2023-08-27T00:36:20.352Z,7.28
2023-08-27T00:38:47.203Z,7.45
2023-08-27T00:41:14.413Z,7.13
2023-08-27T00:43:42.949Z,7.63
2023-08-27T00:46:10.959Z,7.15
2023-08-27T00:51:05.297Z,6.78
2023-08-27T00:53:32.683Z,6.90
2023-08-27T00:55:59.539Z,7.85
2023-08-27T00:58:26.044Z,7.55
2023-08-27T01:00:53.117Z,8.00
2023-08-27T01:03:19.928Z,7.07
2023-08-27T01:05:46.733Z,6.97
2023-08-27T01:08:21.818Z,7.68
2023-08-27T01:10:58.537Z,7.55
2023-08-27T01:13:33.072Z,7.63
2023-08-27T01:16:02.634Z,6.53
2023-08-27T01:18:30.169Z,6.43
2023-08-27T01:20:57.800Z,6.32
2023-08-27T01:23:25.796Z,6.85
2023-08-27T01:28:34.921Z,6.82
2023-08-27T01:31:05.381Z,6.40
2023-08-27T01:33:33.705Z,6.50
2023-08-27T01:36:01.514Z,6.45
2023-08-27T01:38:29.176Z,6.80
2023-08-27T01:40:55.650Z,6.05
2023-08-27T01:43:22.337Z,6.00
2023-08-27T01:45:49.214Z,7.78
2023-08-27T01:48:15.998Z,6.68
2023-08-27T01:50:42.514Z,6.22
2023-08-27T01:53:09.074Z,6.60
2023-08-27T01:55:35.869Z,7.20
2023-08-27T01:58:03.543Z,6.65
2023-08-27T02:00:30.178Z,6.95
2023-08-27T02:02:56.954Z,6.72
2023-08-27T02:05:23.576Z,7.43
2023-08-27T02:07:50.114Z,6.80
2023-08-27T02:10:16.722Z,7.00
2023-08-27T02:12:43.370Z,6.35
2023-08-27T02:15:10.697Z,7.68
2023-08-27T02:17:39.447Z,6.88
2023-08-27T02:20:11.331Z,7.07
2023-08-27T02:22:38.462Z,7.47
2023-08-27T02:25:06.256Z,7.13
2023-08-27T02:27:32.831Z,7.65
2023-08-27T02:29:59.507Z,7.28
2023-08-27T02:32:26.155Z,7.05
2023-08-27T02:34:52.928Z,8.27
2023-08-27T02:37:19.631Z,7.63
2023-08-27T02:39:46.318Z,9.20
2023-08-27T02:42:13.038Z,7.78
2023-08-27T02:44:39.693Z,7.80
2023-08-27T02:47:06.440Z,7.72
2023-08-27T02:49:33.180Z,8.30
2023-08-27T02:51:59.760Z,7.75
2023-08-27T02:54:27.826Z,7.60
2023-08-27T02:59:21.026Z,8.13
2023-08-27T03:01:47.704Z,7.95
2023-08-27T03:04:14.326Z,7.88
2023-08-27T03:06:40.812Z,8.80
2023-08-27T03:09:07.310Z,8.35
2023-08-27T03:11:33.973Z,8.85
2023-08-27T03:14:00.733Z,7.65
2023-08-27T03:16:27.330Z,8.07
2023-08-27T03:18:54.197Z,7.07
2023-08-27T03:21:22.377Z,9.00
2023-08-27T03:23:49.284Z,8.10
2023-08-27T03:26:16.165Z,7.32
2023-08-27T03:28:42.985Z,7.25
2023-08-27T03:31:09.536Z,7.93
2023-08-27T03:33:36.091Z,8.05
2023-08-27T03:36:03.407Z,7.53
2023-08-27T03:38:30.224Z,8.55
2023-08-27T03:40:57.090Z,9.88
2023-08-27T03:43:23.699Z,9.32
2023-08-27T03:45:50.657Z,8.25
2023-08-27T03:48:17.378Z,8.55
2023-08-27T03:50:44.041Z,8.68
2023-08-27T03:53:11.438Z,8.88
2023-08-27T03:55:40.182Z,7.38
2023-08-27T03:58:10.699Z,8.35
2023-08-27T04:00:38.178Z,8.75
2023-08-27T04:03:06.097Z,7.32
2023-08-27T04:05:32.768Z,7.95
2023-08-27T04:07:59.262Z,8.10
2023-08-27T04:10:27.051Z,7.88
2023-08-27T04:12:53.999Z,7.78
2023-08-27T04:15:20.742Z,7.75
2023-08-27T04:17:47.253Z,7.50
2023-08-27T04:20:14.052Z,7.05
2023-08-27T04:22:40.735Z,4.88
2023-08-27T04:25:07.696Z,2.05
2023-08-27T04:27:35.285Z,0.90
2023-08-27T04:30:02.287Z,0.90
2023-08-27T04:32:28.954Z,0.60
2023-08-27T04:34:55.644Z,0.60
2023-08-27T04:37:22.263Z,0.60
2023-08-27T04:39:49.020Z,0.63
2023-08-27T04:42:15.888Z,0.60
2023-08-27T04:44:42.450Z,0.60
2023-08-27T04:47:09.368Z,0.30
2023-08-27T04:49:35.914Z,0.43
2023-08-27T04:52:02.624Z,0.40
2023-08-27T04:54:29.395Z,0.32
2023-08-27T04:56:56.175Z,0.88
2023-08-27T04:59:22.719Z,0.20
2023-08-27T05:01:49.271Z,0.47
2023-08-27T05:04:21.927Z,0.20
2023-08-27T05:06:48.572Z,0.35
2023-08-27T05:09:16.600Z,0.38
2023-08-27T05:16:36.957Z,0.70
2023-08-27T05:19:03.708Z,0.30
2023-08-27T05:21:30.381Z,0.40
2023-08-27T05:23:57.162Z,0.35
2023-08-27T05:26:23.718Z,0.60
2023-08-27T05:28:50.237Z,0.45
2023-08-27T05:31:16.791Z,0.60
2023-08-27T05:33:43.626Z,0.35
2023-08-27T05:36:10.371Z,0.45
2023-08-27T05:38:37.010Z,0.35
2023-08-27T05:41:03.660Z,0.32
2023-08-27T05:43:30.151Z,0.40
2023-08-27T05:45:56.905Z,0.40
2023-08-27T05:48:23.771Z,0.43
2023-08-27T05:50:50.459Z,0.65
2023-08-27T05:53:17.134Z,0.20
2023-08-27T05:55:47.576Z,0.45
2023-08-27T05:58:14.166Z,0.47
2023-08-27T06:00:42.382Z,0.65
2023-08-27T06:03:09.077Z,0.60
2023-08-27T06:05:35.897Z,0.35
2023-08-27T06:08:04.805Z,0.40
2023-08-27T06:10:32.115Z,0.45
2023-08-27T06:12:59.163Z,0.38
2023-08-27T06:15:28.900Z,0.68
2023-08-27T06:17:55.825Z,0.50
2023-08-27T06:20:22.747Z,0.90
2023-08-27T06:22:49.406Z,0.85
2023-08-27T06:25:16.147Z,1.95
2023-08-27T06:27:44.330Z,1.30
2023-08-27T06:30:11.442Z,2.58
2023-08-27T06:32:38.696Z,2.88
2023-08-27T06:35:05.729Z,3.65
2023-08-27T06:37:32.334Z,3.97
2023-08-27T06:39:59.006Z,4.75
2023-08-27T06:42:25.754Z,5.10
2023-08-27T06:44:52.889Z,4.30
2023-08-27T06:47:19.569Z,5.18
2023-08-27T06:49:47.348Z,5.40
2023-08-27T06:52:14.126Z,5.35
2023-08-27T06:54:40.812Z,5.88
2023-08-27T06:57:07.488Z,5.00
2023-08-27T06:59:34.097Z,5.93
2023-08-27T07:02:00.966Z,5.93
2023-08-27T07:04:27.714Z,7.03
2023-08-27T07:06:54.569Z,6.35
2023-08-27T07:09:23.343Z,7.65
2023-08-27T07:11:49.889Z,6.88
2023-08-27T07:14:16.665Z,7.00
2023-08-27T07:16:43.245Z,7.13
2023-08-27T07:19:10.006Z,6.47
2023-08-27T07:21:36.658Z,6.85
2023-08-27T07:24:03.288Z,6.90
2023-08-27T07:26:31.107Z,7.60
2023-08-27T07:31:24.486Z,7.15
2023-08-27T07:33:51.155Z,9.20
2023-08-27T07:36:17.788Z,8.65
2023-08-27T07:38:44.450Z,10.95
2023-08-27T07:41:12.359Z,10.52
2023-08-27T07:46:05.682Z,10.55
2023-08-27T07:48:33.415Z,12.25
2023-08-27T07:50:59.981Z,11.90
2023-08-27T07:53:26.834Z,12.07
2023-08-27T07:55:55.680Z,11.13
2023-08-27T07:58:22.997Z,11.82
2023-08-27T08:00:49.822Z,10.45
2023-08-27T08:03:16.589Z,10.65
2023-08-27T08:05:43.346Z,10.32
2023-08-27T08:08:10.110Z,9.82
2023-08-27T08:10:39.007Z,9.73
2023-08-27T08:13:15.585Z,11.15
2023-08-27T08:15:49.386Z,10.25
2023-08-27T08:18:38.350Z,9.90
2023-08-27T08:21:10.867Z,8.13
2023-08-27T08:23:37.569Z,7.80
2023-08-27T08:26:06.188Z,7.30
2023-08-27T08:28:32.717Z,7.38
2023-08-27T08:31:20.895Z,7.63
2023-08-27T08:33:48.869Z,7.45
2023-08-27T08:36:33.777Z,7.35
2023-08-27T08:39:00.825Z,7.43
2023-08-27T08:41:29.178Z,6.75
2023-08-27T08:44:13.567Z,7.25
2023-08-27T08:46:41.182Z,7.03
2023-08-27T08:49:23.417Z,6.20
2023-08-27T08:51:55.694Z,7.40
2023-08-27T08:54:45.056Z,6.43
2023-08-27T08:57:19.137Z,7.18
2023-08-27T09:00:11.956Z,6.75
2023-08-27T09:02:43.984Z,6.47
2023-08-27T09:05:13.559Z,6.45
2023-08-27T09:07:41.835Z,6.93
2023-08-27T09:10:10.906Z,6.35
2023-08-27T09:12:56.670Z,6.28
2023-08-27T09:15:26.487Z,5.75
2023-08-27T09:18:06.348Z,5.53
2023-08-27T09:20:34.659Z,3.20
2023-08-27T09:23:01.800Z,3.10
2023-08-27T09:25:28.626Z,2.90
2023-08-27T09:27:55.757Z,3.38
2023-08-27T09:30:33.124Z,3.20
2023-08-27T09:33:04.893Z,2.05
2023-08-27T09:35:50.203Z,2.33
2023-08-27T09:38:22.119Z,1.92
2023-08-27T09:40:49.173Z,1.00
2023-08-27T09:43:15.726Z,0.60
2023-08-27T09:45:42.511Z,0.10
2023-08-27T09:48:28.419Z,0.30
2023-08-27T09:51:08.002Z,0.32
2023-08-27T09:53:41.930Z,0.13
2023-08-27T09:56:08.689Z,0.43
2023-08-27T09:58:41.694Z,0.38
2023-08-27T10:01:12.407Z,0.60
2023-08-27T10:03:38.952Z,0.55
2023-08-27T10:06:11.861Z,0.55
2023-08-27T10:08:52.272Z,0.52
2023-08-27T10:11:24.542Z,0.60
2023-08-27T10:13:51.501Z,0.28
2023-08-27T10:16:18.966Z,0.50
2023-08-27T10:18:47.636Z,0.40
2023-08-27T10:21:14.566Z,0.45
2023-08-27T10:23:54.016Z,0.50
2023-08-27T10:26:23.756Z,0.30
2023-08-27T10:29:07.725Z,0.28
2023-08-27T10:31:54.777Z,0.45
2023-08-27T10:34:32.716Z,0.60
2023-08-27T10:37:06.151Z,0.50
2023-08-27T10:39:34.752Z,0.50
2023-08-27T10:42:01.606Z,0.50
2023-08-27T10:44:28.221Z,0.40
2023-08-27T10:47:15.900Z,0.50
2023-08-27T10:49:50.180Z,0.22
2023-08-27T10:52:33.425Z,0.65
2023-08-27T10:55:04.780Z,0.90
2023-08-27T10:57:37.357Z,0.98
2023-08-27T11:00:13.810Z,1.10
2023-08-27T11:03:15.100Z,0.68
2023-08-27T11:05:42.081Z,0.50
2023-08-27T11:08:19.548Z,0.38
2023-08-27T11:10:47.134Z,0.30
2023-08-27T11:13:33.195Z,0.50
2023-08-27T11:15:59.936Z,1.30
2023-08-27T11:18:26.544Z,0.40
2023-08-27T11:20:55.003Z,0.50
2023-08-27T11:23:21.863Z,0.52
2023-08-27T11:25:49.523Z,0.50
2023-08-27T11:28:16.364Z,0.40
2023-08-27T11:30:45.020Z,0.50
2023-08-27T11:33:15.710Z,0.63
2023-08-27T11:35:42.324Z,0.50
2023-08-27T11:38:11.713Z,0.88
2023-08-27T11:40:39.648Z,0.50
2023-08-27T11:43:06.365Z,0.60
2023-08-27T11:45:39.113Z,0.40
2023-08-27T11:48:07.818Z,0.55
2023-08-27T11:50:35.735Z,0.35
2023-08-27T11:53:02.943Z,0.75
2023-08-27T11:55:29.988Z,0.55
2023-08-27T11:57:57.882Z,0.65
2023-08-27T12:02:51.392Z,0.70
2023-08-27T12:05:18.305Z,0.40
2023-08-27T12:07:44.866Z,0.45
2023-08-27T12:10:14.958Z,0.35
2023-08-27T12:12:42.715Z,0.68
2023-08-27T12:15:11.219Z,0.40
2023-08-27T12:17:38.908Z,0.20
2023-08-27T12:20:08.813Z,0.30
2023-08-27T12:22:45.990Z,0.25
2023-08-27T12:25:13.886Z,0.43
2023-08-27T12:30:11.188Z,0.40
2023-08-27T12:32:37.983Z,0.60
2023-08-27T12:35:07.892Z,0.98
2023-08-27T12:37:35.393Z,0.20
2023-08-27T12:40:01.965Z,0.30
2023-08-27T12:42:28.576Z,0.30
2023-08-27T12:45:13.359Z,0.63
2023-08-27T12:47:40.165Z,0.60
2023-08-27T12:50:21.725Z,0.50
2023-08-27T12:52:52.558Z,0.40
2023-08-27T12:55:20.598Z,0.55
2023-08-27T12:57:47.126Z,0.60
2023-08-27T13:00:13.860Z,0.20
2023-08-27T13:02:55.500Z,0.40
2023-08-27T13:05:27.022Z,0.85
2023-08-27T13:08:03.536Z,0.75
2023-08-27T13:10:32.463Z,1.05
2023-08-27T13:12:59.030Z,0.50
2023-08-27T13:15:26.240Z,0.80
2023-08-27T13:17:52.831Z,0.70
2023-08-27T13:20:26.393Z,0.90
2023-08-27T13:22:55.612Z,0.70
2023-08-27T13:25:22.225Z,0.98
2023-08-27T13:27:48.775Z,0.93
2023-08-27T13:30:15.706Z,0.60
2023-08-27T13:32:42.342Z,0.70
2023-08-27T13:35:09.214Z,0.80
2023-08-27T13:37:35.883Z,1.38
2023-08-27T13:40:03.843Z,1.23
2023-08-27T13:42:30.377Z,1.42
2023-08-27T13:44:57.152Z,1.50
2023-08-27T13:47:23.856Z,2.15
2023-08-27T13:49:52.618Z,1.20
2023-08-27T13:52:19.591Z,1.60
2023-08-27T13:54:48.086Z,2.00
2023-08-27T13:57:14.987Z,1.80
2023-08-27T13:59:42.168Z,1.73
2023-08-27T14:02:09.342Z,1.45
2023-08-27T14:04:37.515Z,2.85
2023-08-27T14:07:05.020Z,1.92
2023-08-27T14:09:33.993Z,2.10
2023-08-27T14:12:00.698Z,2.10
2023-08-27T14:14:27.535Z,1.80
2023-08-27T14:16:54.152Z,2.47
2023-08-27T14:19:20.722Z,1.98
2023-08-27T14:21:47.517Z,1.92
2023-08-27T14:24:14.585Z,1.30
2023-08-27T14:26:41.160Z,1.13
2023-08-27T14:29:08.703Z,0.68
2023-08-27T14:31:37.880Z,0.80
2023-08-27T14:34:05.825Z,0.80
2023-08-27T14:39:00.035Z,0.75
2023-08-27T14:41:27.515Z,0.63
2023-08-27T14:43:54.455Z,0.75
2023-08-27T14:46:21.693Z,0.40
2023-08-27T14:48:54.307Z,0.85
2023-08-27T14:51:21.233Z,0.50
2023-08-27T14:53:48.108Z,0.60
2023-08-27T14:56:14.719Z,0.43
2023-08-27T14:58:48.330Z,0.40
2023-08-27T15:01:15.389Z,0.30
2023-08-27T15:03:44.452Z,0.30
2023-08-27T15:06:11.220Z,0.50
2023-08-27T15:08:37.998Z,0.70
2023-08-27T15:11:04.913Z,0.73
2023-08-27T15:13:31.915Z,0.60
2023-08-27T15:15:59.106Z,0.70
2023-08-27T15:18:26.968Z,0.52
2023-08-27T15:20:53.761Z,0.70
2023-08-27T15:23:20.600Z,0.80
2023-08-27T15:25:47.537Z,0.90
2023-08-27T15:28:14.210Z,0.80
2023-08-27T15:30:41.242Z,0.70
2023-08-27T15:33:07.929Z,0.90
2023-08-27T15:35:34.703Z,1.00
2023-08-27T15:38:01.517Z,0.70
2023-08-27T15:40:28.246Z,0.57
2023-08-27T15:43:37.232Z,1.17
2023-08-27T15:46:04.340Z,1.13
2023-08-27T15:48:33.258Z,1.65
2023-08-27T15:51:00.160Z,0.80
2023-08-27T15:53:26.961Z,0.70
2023-08-27T15:55:55.171Z,2.63
2023-08-27T15:58:21.966Z,0.38
2023-08-27T16:00:48.938Z,0.70
2023-08-27T16:03:15.812Z,1.42
2023-08-27T16:05:44.821Z,0.85
2023-08-27T16:08:11.421Z,0.80
2023-08-27T16:10:40.865Z,0.82
2023-08-27T16:13:07.531Z,0.57
2023-08-27T16:15:34.162Z,0.68
2023-08-27T16:18:03.454Z,0.98
2023-08-27T16:20:30.488Z,0.60
2023-08-27T16:22:57.283Z,0.65
2023-08-27T16:25:24.153Z,0.70
2023-08-27T16:27:51.070Z,0.90
2023-08-27T16:30:18.194Z,0.85
2023-08-27T16:32:44.795Z,0.63
2023-08-27T16:35:14.352Z,0.50
2023-08-27T16:37:42.798Z,0.77
2023-08-27T16:40:09.937Z,0.57
2023-08-27T16:42:36.462Z,0.70
2023-08-27T16:45:04.082Z,0.75
2023-08-27T16:47:30.990Z,0.60
2023-08-27T16:49:57.996Z,0.80
2023-08-27T16:52:25.176Z,0.80
2023-08-27T16:54:52.016Z,0.47
2023-08-27T16:57:18.632Z,1.30
2023-08-27T16:59:45.925Z,0.80
2023-08-27T17:02:12.617Z,0.77
2023-08-27T17:04:42.046Z,0.68
2023-08-27T17:07:10.401Z,0.80
2023-08-27T17:09:36.917Z,0.63
2023-08-27T17:12:03.995Z,0.77
2023-08-27T17:14:30.841Z,0.80
2023-08-27T17:16:57.440Z,0.50
2023-08-27T17:19:25.021Z,0.63
2023-08-27T17:21:51.695Z,1.27
2023-08-27T17:24:18.325Z,0.70
2023-08-27T17:26:44.788Z,0.68
2023-08-27T17:29:11.623Z,0.68
2023-08-27T17:31:38.366Z,0.55
2023-08-27T17:34:05.018Z,0.80
2023-08-27T17:36:34.668Z,0.60
2023-08-27T17:39:01.214Z,0.70
2023-08-27T17:41:30.070Z,1.00
2023-08-27T17:43:57.053Z,0.88
2023-08-27T17:46:25.624Z,0.98
2023-08-27T17:48:52.187Z,0.70
2023-08-27T17:51:18.683Z,0.88
2023-08-27T17:53:45.331Z,0.68
2023-08-27T17:56:11.841Z,0.95
2023-08-27T17:58:38.447Z,0.98
2023-08-27T18:01:05.398Z,0.68
2023-08-27T18:03:32.685Z,0.85
2023-08-27T18:05:59.301Z,0.70
2023-08-27T18:08:25.801Z,1.13
2023-08-27T18:10:52.465Z,0.70
2023-08-27T18:13:19.175Z,0.98
2023-08-27T18:15:45.883Z,1.30
2023-08-27T18:18:12.629Z,1.38
2023-08-27T18:20:39.743Z,1.17
2023-08-27T18:23:06.246Z,1.17
2023-08-27T18:25:32.842Z,1.45
2023-08-27T18:28:01.776Z,1.55
2023-08-27T18:30:31.618Z,1.25
2023-08-27T18:32:59.274Z,1.27
2023-08-27T18:35:25.806Z,1.63
2023-08-27T18:37:52.810Z,1.90
2023-08-27T18:40:20.602Z,1.02
2023-08-27T18:42:47.780Z,1.20
2023-08-27T18:45:14.356Z,1.55
2023-08-27T18:47:40.978Z,0.90
2023-08-27T18:50:07.805Z,1.48
2023-08-27T18:52:34.275Z,1.70
2023-08-27T18:55:02.229Z,1.40
2023-08-27T18:59:56.136Z,1.33
2023-08-27T19:02:26.318Z,1.35
2023-08-27T19:04:52.953Z,1.40
2023-08-27T19:07:19.458Z,1.23
2023-08-27T19:09:53.411Z,1.50
2023-08-27T19:14:55.155Z,1.50
2023-08-27T19:17:23.007Z,1.50
2023-08-27T19:19:49.948Z,2.05
2023-08-27T19:22:16.804Z,1.13
2023-08-27T19:24:44.331Z,1.30
2023-08-27T19:27:14.312Z,1.70
2023-08-27T19:29:40.878Z,1.75
2023-08-27T19:32:11.461Z,1.60
2023-08-27T19:34:38.233Z,1.73
2023-08-27T19:37:06.501Z,1.90
2023-08-27T19:39:33.332Z,1.60
2023-08-27T19:42:00.056Z,1.38
2023-08-27T19:44:30.075Z,1.65
2023-08-27T19:46:56.932Z,1.83
2023-08-27T19:49:23.519Z,2.17
2023-08-27T19:51:50.178Z,1.50
2023-08-27T19:54:17.002Z,1.20
2023-08-27T19:56:49.680Z,1.38
2023-08-27T19:59:19.322Z,1.25
2023-08-27T20:01:48.923Z,1.15
2023-08-27T20:04:16.599Z,1.42
2023-08-27T20:06:43.432Z,1.50
2023-08-27T20:09:10.203Z,1.50
2023-08-27T20:11:40.358Z,1.15
2023-08-27T20:14:08.132Z,1.27
2023-08-27T20:16:35.433Z,1.17
2023-08-27T20:19:02.284Z,1.75
2023-08-27T20:21:28.902Z,1.50
2023-08-27T20:23:55.592Z,1.88
2023-08-27T20:26:22.537Z,1.33
2023-08-27T20:28:49.409Z,1.50
2023-08-27T20:31:16.347Z,1.70
2023-08-27T20:33:43.404Z,1.45
2023-08-27T20:36:10.231Z,1.95
2023-08-27T20:38:37.079Z,1.70
2023-08-27T20:41:04.796Z,1.65
2023-08-27T20:43:34.887Z,1.50
2023-08-27T20:46:03.435Z,1.52
2023-08-27T20:48:31.099Z,2.17
2023-08-27T20:50:58.406Z,1.45
2023-08-27T20:53:25.137Z,1.45
2023-08-27T20:55:52.021Z,1.50
2023-08-27T20:58:18.901Z,1.35
2023-08-27T21:00:45.902Z,1.70
2023-08-27T21:03:12.571Z,1.15
2023-08-27T21:05:43.541Z,1.08
2023-08-27T21:08:10.751Z,1.10
2023-08-27T21:10:37.589Z,1.42
2023-08-27T21:13:05.146Z,1.30
2023-08-27T21:15:31.983Z,1.25
2023-08-27T21:17:58.773Z,1.40
2023-08-27T21:20:25.555Z,1.05
2023-08-27T21:22:52.296Z,1.20
2023-08-27T21:25:18.963Z,1.05
2023-08-27T21:27:45.480Z,0.98
2023-08-27T21:30:15.285Z,1.00
2023-08-27T21:32:42.476Z,1.25
2023-08-27T21:35:09.664Z,1.50
2023-08-27T21:37:36.915Z,1.30
2023-08-27T21:40:03.747Z,1.30
2023-08-27T21:42:30.391Z,1.02
2023-08-27T21:44:56.944Z,1.60
2023-08-27T21:47:23.722Z,1.50
2023-08-27T21:49:51.821Z,1.52
2023-08-27T21:52:18.480Z,1.58
2023-08-27T21:54:45.340Z,1.38
2023-08-27T21:57:14.936Z,1.50
2023-08-27T21:59:41.521Z,1.42
2023-08-27T22:02:08.287Z,1.40
2023-08-27T22:04:34.867Z,1.75
2023-08-27T22:07:01.532Z,1.70
2023-08-27T22:09:28.053Z,1.85
2023-08-27T22:11:54.689Z,1.30
2023-08-27T22:14:21.493Z,1.65
2023-08-27T22:16:49.091Z,1.30
2023-08-27T22:19:23.448Z,1.63
2023-08-27T22:21:50.351Z,1.27
2023-08-27T22:24:16.995Z,1.77
2023-08-27T22:26:43.610Z,1.80
2023-08-27T22:29:10.164Z,1.42
2023-08-27T22:31:36.756Z,1.63
2023-08-27T22:34:03.406Z,1.52
2023-08-27T22:36:30.178Z,1.27
2023-08-27T22:38:56.878Z,1.73
2023-08-27T22:41:23.478Z,1.48
2023-08-27T22:43:50.091Z,1.42
2023-08-27T22:46:16.647Z,1.50
2023-08-27T22:48:43.235Z,1.67
2023-08-27T22:51:09.742Z,1.70
2023-08-27T22:53:36.453Z,2.00
2023-08-27T22:56:03.144Z,1.75
2023-08-27T22:58:32.779Z,1.75
2023-08-27T23:00:59.419Z,2.10
2023-08-27T23:03:26.273Z,2.95
2023-08-27T23:05:53.177Z,1.88
2023-08-27T23:08:20.048Z,2.95
2023-08-27T23:10:46.705Z,2.97
2023-08-27T23:13:14.229Z,1.95
2023-08-27T23:15:40.828Z,2.38
2023-08-27T23:18:08.705Z,2.58
2023-08-27T23:23:02.342Z,1.83
2023-08-27T23:25:29.192Z,1.83
2023-08-27T23:27:55.737Z,1.90
2023-08-27T23:30:22.432Z,2.42
2023-08-27T23:32:49.004Z,1.80
2023-08-27T23:35:15.790Z,1.95
2023-08-27T23:37:42.476Z,1.90
2023-08-27T23:40:11.163Z,1.83
2023-08-27T23:42:38.067Z,1.90
2023-08-27T23:45:05.104Z,2.00
2023-08-27T23:47:32.084Z,1.83
2023-08-27T23:49:58.804Z,1.67
2023-08-27T23:52:25.696Z,1.33
2023-08-27T23:54:52.647Z,1.70
2023-08-27T23:57:19.739Z,1.70
2023-08-27T23:59:46.500Z,1.90
